.
WxDataArchive / Data Records for 2008-11-30
2008-11-29 November 2008 2008-12-01

Data Records for Sunday, 30 November 2008

Time	Temp	Chill	HIndex	Humid	Dewpt	 Wind 	HiWind	WindDir	Rain 	Barom 
-----	----	-----	------	-----	-----	------	------	-------	-----	----- 
00:00	31.3	31.3	31.3	71	23.0	1	3	90	0.00	29.651 
00:05	31.3	31.3	31.3	71	23.0	1	3	112	0.00	29.644 
00:10	31.5	31.5	31.5	71	23.2	1	4	90	0.00	29.636 
00:15	31.5	31.5	31.5	71	23.2	1	5	90	0.00	29.635 
00:20	31.5	31.5	31.5	71	23.2	1	3	112	0.00	29.635 
00:25	31.5	31.5	31.5	71	23.2	1	3	112	0.00	29.633 
00:30	31.5	31.5	31.5	71	23.2	1	4	90	0.00	29.626 
00:35	31.5	31.5	31.5	71	23.2	1	3	112	0.00	29.620 
00:40	31.5	31.5	31.5	72	23.5	1	3	45	0.00	29.614 
00:45	31.6	31.6	31.6	72	23.6	1	6	112	0.00	29.606 
00:50	31.8	31.8	31.8	71	23.5	2	5	90	0.00	29.607 
00:55	31.8	31.8	31.8	72	23.8	1	4	90	0.00	29.606 
01:00	31.8	31.8	31.8	72	23.8	1	4	112	0.00	29.604 
01:05	31.8	31.8	31.8	72	23.8	1	4	90	0.00	29.603 
01:10	31.6	31.6	31.6	73	24.0	1	3	112	0.00	29.600 
01:15	31.5	31.5	31.5	73	23.9	1	4	90	0.00	29.600 
01:20	31.3	31.3	31.3	73	23.7	1	4	90	0.00	29.600 
01:25	31.3	31.3	31.3	73	23.7	1	3	68	0.00	29.602 
01:30	31.3	31.3	31.3	73	23.7	2	4	68	0.00	29.602 
01:35	31.2	31.2	31.2	74	23.9	1	2	68	0.00	29.604 
01:40	31.2	31.2	31.2	74	23.9	0	2	68	0.00	29.606 
01:45	31.3	31.3	31.3	73	23.7	0	2	68	0.00	29.608 
01:50	31.5	31.5	31.5	73	23.9	1	4	68	0.00	29.604 
01:55	31.6	31.6	31.6	72	23.6	2	5	112	0.00	29.602 
02:00	31.8	31.8	31.8	71	23.5	2	7	90	0.00	29.598 
02:05	31.9	31.9	31.9	71	23.6	1	5	90	0.00	29.590 
02:10	31.9	31.9	31.9	72	23.9	1	4	90	0.00	29.586 
02:15	31.8	31.8	31.8	72	23.8	1	4	112	0.00	29.584 
02:20	31.8	31.8	31.8	72	23.8	2	4	112	0.00	29.576 
02:25	31.6	31.6	31.6	72	23.6	2	4	112	0.00	29.574 
02:30	31.6	31.6	31.6	73	24.0	2	5	90	0.00	29.571 
02:35	31.5	31.5	31.5	73	23.9	2	5	90	0.00	29.570 
02:40	31.5	31.5	31.5	73	23.9	1	3	112	0.00	29.565 
02:45	31.3	31.3	31.3	73	23.7	1	5	112	0.00	29.564 
02:50	31.3	31.3	31.3	74	24.0	1	4	112	0.00	29.565 
02:55	31.3	31.3	31.3	73	23.7	2	4	112	0.00	29.560 
03:00	31.3	31.3	31.3	73	23.7	2	7	112	0.00	29.556 
03:05	31.5	31.5	31.5	73	23.9	3	7	112	0.00	29.550 
03:10	31.8	31.8	31.8	72	23.8	3	9	112	0.00	29.546 
03:15	31.8	31.8	31.8	72	23.8	2	7	90	0.00	29.538 
03:20	31.9	31.9	31.9	72	23.9	3	7	90	0.00	29.535 
03:25	32.1	32.1	32.1	72	24.1	3	7	112	0.00	29.527 
03:30	32.1	32.1	32.1	72	24.1	3	9	112	0.00	29.526 
03:35	32.1	32.1	32.1	72	24.1	2	6	90	0.00	29.525 
03:40	31.9	31.9	31.9	73	24.2	1	5	90	0.00	29.522 
03:45	31.8	31.8	31.8	73	24.1	2	5	112	0.00	29.522 
03:50	31.8	31.8	31.8	73	24.1	1	4	112	0.00	29.523 
03:55	31.8	31.8	31.8	73	24.1	2	6	112	0.00	29.521 
04:00	31.8	31.8	31.8	73	24.1	1	5	90	0.00	29.513 
04:05	31.8	31.8	31.8	73	24.1	1	5	112	0.00	29.515 
04:10	31.8	31.8	31.8	73	24.1	1	3	90	0.00	29.518 
04:15	31.8	31.8	31.8	73	24.1	0	1	90	0.00	29.512 
04:20	31.8	31.8	31.8	73	24.1	0	1	90	0.00	29.509 
04:25	31.8	31.8	31.8	73	24.1	0	2	90	0.00	29.500 
04:30	31.6	31.6	31.6	73	24.0	1	3	135	0.00	29.494 
04:35	31.6	31.6	31.6	74	24.3	1	3	90	0.00	29.490 
04:40	31.5	31.5	31.5	74	24.2	0	2	45	0.00	29.493 
04:45	31.5	31.5	31.5	74	24.2	1	3	68	0.00	29.487 
04:50	31.5	31.5	31.5	74	24.2	1	4	112	0.00	29.480 
04:55	31.6	31.6	31.6	73	24.0	1	4	90	0.00	29.473 
05:00	31.8	31.8	31.8	73	24.1	3	9	112	0.00	29.460 
05:05	31.8	31.8	31.8	73	24.1	3	12	112	0.00	29.463 
05:10	31.9	31.9	31.9	73	24.2	3	12	90	0.00	29.467 
05:15	32.1	32.1	32.1	73	24.4	3	7	112	0.00	29.468 
05:20	32.1	32.1	32.1	72	24.1	2	9	112	0.00	29.466 
05:25	32.2	32.2	32.2	72	24.2	3	7	90	0.00	29.454 
05:30	32.4	32.4	32.4	72	24.4	3	10	90	0.00	29.453 
05:35	32.4	28.5	32.4	72	24.4	4	10	112	0.00	29.452 
05:40	32.4	32.4	32.4	72	24.4	3	9	112	0.00	29.439 
05:45	32.4	28.5	32.4	72	24.4	4	10	112	0.00	29.437 
05:50	32.5	28.7	32.5	71	24.2	4	11	112	0.00	29.434 
05:55	32.5	32.5	32.5	71	24.2	3	7	112	0.00	29.434 
06:00	32.7	27.9	32.7	70	24.0	5	12	112	0.00	29.432 
06:05	32.8	28.0	32.8	69	23.8	5	12	112	0.00	29.437 
06:10	32.9	32.9	32.9	69	23.9	2	7	112	0.00	29.439 
06:15	32.9	29.1	32.9	69	23.9	4	13	90	0.00	29.442 
06:20	32.9	32.9	32.9	69	23.9	2	11	112	0.00	29.442 
06:25	33.1	33.1	33.1	69	24.1	2	4	90	0.00	29.452 
06:30	33.1	33.1	33.1	69	24.1	1	7	90	0.00	29.455 
06:35	33.1	33.1	33.1	68	23.7	2	5	90	0.00	29.457 
06:40	33.1	33.1	33.1	69	24.1	1	3	112	0.00	29.462 
06:45	33.1	33.1	33.1	69	24.1	0	2	112	0.00	29.460 
06:50	33.1	33.1	33.1	69	24.1	0	2	112	0.00	29.458 
06:55	33.1	33.1	33.1	69	24.1	0	2	112	0.00	29.456 
07:00	32.9	32.9	32.9	69	23.9	1	3	90	0.00	29.453 
07:05	32.9	32.9	32.9	69	23.9	1	5	90	0.00	29.448 
07:10	33.1	33.1	33.1	69	24.1	2	4	135	0.00	29.443 
07:15	33.1	33.1	33.1	69	24.1	3	5	90	0.00	29.444 
07:20	33.2	33.2	33.2	70	24.5	3	7	90	0.00	29.443 
07:25	33.1	33.1	33.1	73	25.4	2	5	112	0.00	29.440 
07:30	32.7	32.7	32.7	74	25.3	2	6	112	0.00	29.422 
07:35	32.5	32.5	32.5	75	25.5	2	7	112	0.00	29.416 
07:40	32.4	32.4	32.4	76	25.7	3	7	112	0.00	29.416 
07:45	32.4	32.4	32.4	75	25.4	3	10	112	0.00	29.409 
07:50	32.4	32.4	32.4	76	25.7	3	9	90	0.00	29.413 
07:55	32.4	32.4	32.4	77	26.0	2	5	90	0.00	29.409 
08:00	32.4	32.4	32.4	76	25.7	3	10	90	0.00	29.402 
08:05	32.4	32.4	32.4	76	25.7	3	6	90	0.00	29.394 
08:10	32.4	32.4	32.4	76	25.7	3	7	112	0.00	29.387 
08:15	32.5	32.5	32.5	75	25.5	3	6	90	0.00	29.375 
08:20	32.5	32.5	32.5	76	25.8	2	6	112	0.00	29.363 
08:25	32.5	27.7	32.5	77	26.1	5	10	112	0.00	29.361 
08:30	32.4	28.5	32.4	78	26.3	4	12	90	0.00	29.360 
08:35	32.4	28.5	32.4	80	26.9	4	8	112	0.00	29.360 
08:40	32.4	27.5	32.4	82	27.5	5	10	112	0.00	29.356 
08:45	32.2	28.3	32.2	83	27.6	4	12	90	0.00	29.347 
08:50	32.2	32.2	32.2	84	27.9	3	10	112	0.00	29.347 
08:55	32.4	32.4	32.4	84	28.1	3	10	112	0.00	29.347 
09:00	32.4	32.4	32.4	85	28.4	2	7	112	0.00	29.364 
09:05	32.5	32.5	32.5	85	28.5	1	6	135	0.00	29.368 
09:10	32.5	32.5	32.5	85	28.5	1	4	135	0.00	29.374 
09:15	32.7	32.7	32.7	85	28.7	0	0	---	0.00	29.383 
09:20	32.7	32.7	32.7	85	28.7	0	1	68	0.00	29.390 
09:25	32.7	32.7	32.7	86	29.0	0	1	68	0.00	29.391 
09:30	32.7	32.7	32.7	87	29.3	0	1	68	0.00	29.387 
09:35	32.5	32.5	32.5	88	29.3	0	1	68	0.00	29.379 
09:40	32.5	32.5	32.5	88	29.3	0	2	90	0.00	29.373 
09:45	32.5	32.5	32.5	89	29.6	0	1	90	0.00	29.357 
09:50	32.4	32.4	32.4	90	29.8	0	3	90	0.00	29.350 
09:55	32.4	32.4	32.4	90	29.8	1	3	68	0.00	29.343 
10:00	32.4	32.4	32.4	91	30.1	1	4	135	0.00	29.332 
10:05	32.4	32.4	32.4	92	30.3	1	3	112	0.00	29.330 
10:10	32.4	32.4	32.4	92	30.3	1	5	112	0.00	29.329 
10:15	32.4	32.4	32.4	92	30.3	1	5	112	0.00	29.324 
10:20	32.4	32.4	32.4	92	30.3	0	2	45	0.00	29.321 
10:25	32.5	32.5	32.5	92	30.4	1	6	112	0.00	29.317 
10:30	32.7	32.7	32.7	93	30.9	1	4	112	0.00	29.313 
10:35	32.8	32.8	32.8	93	31.0	1	3	90	0.00	29.311 
10:40	32.8	32.8	32.8	93	31.0	1	5	112	0.00	29.313 
10:45	32.8	32.8	32.8	93	31.0	2	4	112	0.00	29.321 
10:50	32.8	32.8	32.8	93	31.0	2	7	112	0.00	29.312 
10:55	32.9	32.9	32.9	93	31.1	2	6	112	0.00	29.310 
11:00	32.9	32.9	32.9	93	31.1	3	7	112	0.00	29.312 
11:05	32.9	32.9	32.9	93	31.1	2	6	90	0.00	29.312 
11:10	32.9	32.9	32.9	93	31.1	2	5	112	0.00	29.314 
11:15	32.9	32.9	32.9	93	31.1	2	6	112	0.00	29.311 
11:20	32.9	32.9	32.9	93	31.1	2	4	112	0.00	29.312 
11:25	32.9	32.9	32.9	93	31.1	2	4	90	0.00	29.307 
11:30	32.9	32.9	32.9	93	31.1	3	6	90	0.00	29.299 
11:35	32.9	32.9	32.9	93	31.1	3	6	90	0.00	29.295 
11:40	32.9	32.9	32.9	93	31.1	3	10	112	0.00	29.287 
11:45	32.9	32.9	32.9	93	31.1	2	7	112	0.00	29.271 
11:50	32.9	32.9	32.9	93	31.1	3	8	112	0.00	29.259 
11:55	33.1	33.1	33.1	93	31.3	3	8	90	0.00	29.272 
12:00	33.1	28.4	33.1	93	31.3	5	11	112	0.00	29.270 
12:05	33.1	33.1	33.1	92	31.0	2	5	90	0.00	29.278 
12:10	33.1	33.1	33.1	92	31.0	3	6	112	0.00	29.268 
12:15	33.2	33.2	33.2	91	30.9	3	10	90	0.00	29.267 
12:20	33.2	33.2	33.2	91	30.9	2	5	68	0.00	29.267 
12:25	33.2	33.2	33.2	91	30.9	2	4	90	0.00	29.268 
12:30	33.2	33.2	33.2	91	30.9	2	5	90	0.00	29.264 
12:35	33.2	33.2	33.2	91	30.9	2	4	90	0.00	29.254 
12:40	33.2	33.2	33.2	91	30.9	2	6	68	0.00	29.254 
12:45	33.2	33.2	33.2	91	30.9	3	7	90	0.00	29.244 
12:50	33.2	33.2	33.2	91	30.9	2	6	112	0.00	29.250 
12:55	33.2	33.2	33.2	91	30.9	2	5	112	0.00	29.251 
13:00	33.2	33.2	33.2	91	30.9	2	4	90	0.00	29.255 
13:05	33.2	33.2	33.2	90	30.6	2	5	112	0.00	29.254 
13:10	33.2	33.2	33.2	90	30.6	2	5	90	0.00	29.253 
13:15	33.2	33.2	33.2	90	30.6	1	3	90	0.00	29.255 
13:20	33.2	33.2	33.2	90	30.6	0	2	90	0.00	29.264 
13:25	33.2	33.2	33.2	90	30.6	2	4	90	0.00	29.258 
13:30	33.1	33.1	33.1	91	30.8	1	3	90	0.00	29.258 
13:35	33.1	33.1	33.1	91	30.8	1	4	90	0.01	29.248 
13:40	33.1	33.1	33.1	91	30.8	2	5	112	0.00	29.241 
13:45	33.1	33.1	33.1	91	30.8	2	4	112	0.00	29.248 
13:50	33.1	33.1	33.1	91	30.8	1	3	90	0.00	29.248 
13:55	33.1	33.1	33.1	91	30.8	2	3	90	0.00	29.249 
14:00	33.1	33.1	33.1	91	30.8	2	6	112	0.00	29.247 
14:05	33.1	33.1	33.1	91	30.8	2	4	90	0.01	29.241 
14:10	33.1	33.1	33.1	92	31.0	1	4	90	0.00	29.234 
14:15	33.1	33.1	33.1	92	31.0	1	4	90	0.00	29.225 
14:20	33.1	33.1	33.1	92	31.0	2	4	112	0.00	29.225 
14:25	33.1	33.1	33.1	92	31.0	1	5	90	0.00	29.223 
14:30	33.1	33.1	33.1	92	31.0	0	3	90	0.00	29.218 
14:35	33.1	33.1	33.1	92	31.0	1	5	90	0.00	29.216 
14:40	33.1	33.1	33.1	92	31.0	2	6	112	0.00	29.217 
14:45	33.1	33.1	33.1	92	31.0	1	3	112	0.01	29.216 
14:50	33.1	33.1	33.1	92	31.0	1	4	90	0.00	29.216 
14:55	33.1	33.1	33.1	92	31.0	1	4	90	0.00	29.217 
15:00	32.9	32.9	32.9	92	30.8	2	3	112	0.00	29.218 
15:05	32.9	32.9	32.9	92	30.8	2	4	68	0.00	29.219 
15:10	32.9	32.9	32.9	92	30.8	1	4	112	0.00	29.217 
15:15	32.9	32.9	32.9	92	30.8	0	2	112	0.00	29.218 
15:20	32.9	32.9	32.9	92	30.8	0	2	112	0.00	29.217 
15:25	32.9	32.9	32.9	92	30.8	0	2	112	0.00	29.213 
15:30	32.9	32.9	32.9	92	30.8	0	1	112	0.00	29.207 
15:35	32.9	32.9	32.9	92	30.8	0	1	112	0.00	29.201 
15:40	32.9	32.9	32.9	92	30.8	0	1	112	0.01	29.199 
15:45	32.9	32.9	32.9	93	31.1	1	3	112	0.00	29.201 
15:50	32.9	32.9	32.9	93	31.1	0	1	112	0.00	29.198 
15:55	32.9	32.9	32.9	93	31.1	0	2	112	0.00	29.200 
16:00	32.9	32.9	32.9	93	31.1	0	1	112	0.00	29.203 
16:05	32.9	32.9	32.9	93	31.1	0	2	112	0.00	29.211 
16:10	32.9	32.9	32.9	93	31.1	0	1	112	0.00	29.207 
16:15	32.9	32.9	32.9	93	31.1	0	1	112	0.00	29.211 
16:20	32.9	32.9	32.9	93	31.1	0	1	112	0.00	29.217 
16:25	32.9	32.9	32.9	94	31.4	0	1	112	0.00	29.219 
16:30	32.9	32.9	32.9	94	31.4	0	1	112	0.00	29.213 
16:35	32.8	32.8	32.8	94	31.3	0	0	---	0.00	29.209 
16:40	32.8	32.8	32.8	94	31.3	0	1	112	0.00	29.212 
16:45	32.8	32.8	32.8	94	31.3	0	0	---	0.00	29.218 
16:50	32.9	32.9	32.9	94	31.4	0	1	112	0.00	29.219 
16:55	32.8	32.8	32.8	94	31.3	0	0	---	0.00	29.218 
17:00	32.8	32.8	32.8	94	31.3	0	0	---	0.00	29.216 
17:05	32.8	32.8	32.8	94	31.3	0	0	---	0.01	29.214 
17:10	32.8	32.8	32.8	94	31.3	0	1	112	0.00	29.212 
17:15	32.8	32.8	32.8	94	31.3	0	0	---	0.00	29.202 
17:20	32.8	32.8	32.8	94	31.3	0	0	---	0.00	29.214 
17:25	32.8	32.8	32.8	94	31.3	0	1	112	0.00	29.218 
17:30	32.8	32.8	32.8	94	31.3	0	0	---	0.00	29.215 
17:35	32.8	32.8	32.8	94	31.3	0	1	112	0.00	29.214 
17:40	32.8	32.8	32.8	95	31.5	0	1	112	0.00	29.209 
17:45	32.8	32.8	32.8	95	31.5	0	0	---	0.00	29.201 
17:50	32.8	32.8	32.8	95	31.5	0	0	---	0.00	29.204 
17:55	32.7	32.7	32.7	95	31.4	0	0	---	0.00	29.212 
18:00	32.7	32.7	32.7	95	31.4	0	0	---	0.00	29.210 
18:05	32.7	32.7	32.7	95	31.4	0	0	---	0.00	29.204 
18:10	32.7	32.7	32.7	95	31.4	0	0	---	0.00	29.211 
18:15	32.7	32.7	32.7	95	31.4	0	0	---	0.00	29.209 
18:20	32.7	32.7	32.7	95	31.4	0	0	---	0.00	29.209 
18:25	32.7	32.7	32.7	95	31.4	0	0	---	0.00	29.202 
18:30	32.7	32.7	32.7	95	31.4	0	0	---	0.00	29.199 
18:35	32.7	32.7	32.7	95	31.4	0	0	---	0.00	29.199 
18:40	32.7	32.7	32.7	95	31.4	0	0	---	0.00	29.198 
18:45	32.7	32.7	32.7	95	31.4	0	0	---	0.00	29.200 
18:50	32.7	32.7	32.7	95	31.4	0	0	---	0.00	29.197 
18:55	32.7	32.7	32.7	95	31.4	0	0	---	0.00	29.194 
19:00	32.7	32.7	32.7	95	31.4	0	0	---	0.00	29.197 
19:05	32.7	32.7	32.7	95	31.4	0	0	---	0.00	29.195 
19:10	32.7	32.7	32.7	95	31.4	0	0	---	0.00	29.194 
19:15	32.8	32.8	32.8	95	31.5	0	1	112	0.00	29.192 
19:20	32.8	32.8	32.8	95	31.5	0	1	112	0.00	29.190 
19:25	32.8	32.8	32.8	95	31.5	0	0	---	0.00	29.192 
19:30	32.9	32.9	32.9	95	31.6	0	0	---	0.00	29.188 
19:35	32.9	32.9	32.9	95	31.6	0	1	112	0.00	29.186 
19:40	33.1	33.1	33.1	95	31.8	0	1	112	0.00	29.186 
19:45	33.1	33.1	33.1	95	31.8	0	1	112	0.00	29.185 
19:50	33.1	33.1	33.1	95	31.8	0	0	---	0.00	29.184 
19:55	33.1	33.1	33.1	95	31.8	0	1	112	0.00	29.185 
20:00	33.2	33.2	33.2	95	31.9	0	2	112	0.00	29.185 
20:05	33.2	33.2	33.2	95	31.9	0	2	248	0.00	29.185 
20:10	33.2	33.2	33.2	96	32.2	0	2	248	0.00	29.184 
20:15	33.4	33.4	33.4	96	32.4	0	2	248	0.00	29.184 
20:20	33.4	33.4	33.4	96	32.4	0	2	248	0.00	29.183 
20:25	33.4	33.4	33.4	96	32.4	1	3	248	0.00	29.182 
20:30	33.4	33.4	33.4	96	32.4	1	5	248	0.00	29.181 
20:35	33.4	33.4	33.4	96	32.4	1	3	248	0.01	29.179 
20:40	33.4	33.4	33.4	96	32.4	1	3	248	0.00	29.181 
20:45	33.4	33.4	33.4	96	32.4	1	3	248	0.00	29.182 
20:50	33.4	33.4	33.4	96	32.4	1	5	248	0.00	29.179 
20:55	33.5	33.5	33.5	96	32.5	1	3	248	0.00	29.181 
21:00	33.4	33.4	33.4	96	32.4	1	2	248	0.00	29.181 
21:05	33.5	33.5	33.5	96	32.5	1	5	248	0.00	29.182 
21:10	33.5	33.5	33.5	96	32.5	1	3	248	0.00	29.183 
21:15	33.5	33.5	33.5	96	32.5	2	6	248	0.00	29.184 
21:20	33.5	33.5	33.5	96	32.5	2	6	270	0.00	29.183 
21:25	33.5	33.5	33.5	96	32.5	1	4	248	0.00	29.184 
21:30	33.5	33.5	33.5	96	32.5	2	7	248	0.00	29.184 
21:35	33.5	33.5	33.5	96	32.5	1	2	248	0.00	29.184 
21:40	33.5	33.5	33.5	96	32.5	1	2	248	0.00	29.186 
21:45	33.5	33.5	33.5	96	32.5	0	2	248	0.00	29.186 
21:50	33.5	33.5	33.5	96	32.5	0	4	248	0.00	29.186 
21:55	33.5	33.5	33.5	96	32.5	1	3	248	0.00	29.186 
22:00	33.5	33.5	33.5	96	32.5	1	4	248	0.00	29.186 
22:05	33.5	33.5	33.5	96	32.5	1	3	248	0.00	29.186 
22:10	33.4	33.4	33.4	96	32.4	2	7	248	0.01	29.187 
22:15	33.4	33.4	33.4	96	32.4	3	7	248	0.00	29.187 
22:20	33.2	33.2	33.2	96	32.2	3	8	248	0.00	29.188 
22:25	33.1	33.1	33.1	96	32.1	2	6	248	0.00	29.191 
22:30	33.1	33.1	33.1	96	32.1	2	7	248	0.00	29.192 
22:35	33.1	33.1	33.1	96	32.1	2	8	248	0.00	29.194 
22:40	33.1	33.1	33.1	96	32.1	3	7	248	0.00	29.194 
22:45	33.1	33.1	33.1	96	32.1	1	6	248	0.00	29.189 
22:50	32.9	32.9	32.9	95	31.6	3	6	248	0.00	29.189 
22:55	32.8	32.8	32.8	95	31.5	2	6	248	0.00	29.189 
23:00	32.8	32.8	32.8	95	31.5	3	9	248	0.00	29.187 
23:05	32.8	32.8	32.8	95	31.5	2	6	248	0.00	29.189 
23:10	32.8	32.8	32.8	95	31.5	2	4	248	0.00	29.189 
23:15	32.8	32.8	32.8	95	31.5	1	3	248	0.00	29.189 
23:20	32.7	32.7	32.7	95	31.4	1	4	248	0.00	29.189 
23:25	32.7	32.7	32.7	95	31.4	2	6	248	0.00	29.188 
23:30	32.7	32.7	32.7	95	31.4	1	4	248	0.00	29.187 
23:35	32.7	32.7	32.7	94	31.2	1	4	248	0.00	29.189 
23:40	32.7	32.7	32.7	94	31.2	1	3	248	0.00	29.191 
23:45	32.7	32.7	32.7	94	31.2	1	5	248	0.00	29.194 
23:50	32.7	32.7	32.7	94	31.2	2	5	248	0.00	29.193 
23:55	32.5	32.5	32.5	94	31.0	2	7	225	0.00	29.192 

CoCoRaHS
IN-AL-39
A2 Web Hosting
Creative Commons License
GoDaddy
search engine by freefind advanced

loaded 2018-11-14 04:56:22 • last modified 2010-11-18 10:43:29
Privacy PolicyDisclaimer
• wx.awcolley.com is powered by PmWiki v.2002016 •
• all content (unless otherwise noted) © 2018 A W Colley